Time;durP1;ratioP1;P1;durP2;ratioP2;P2;SDS_P1;SDS_P2;PMS_P1;PMS_P2;Temp;Humidity;BMP_temperature;BMP_pressure;BME280_temperature;BME280_humidity;BME280_pressure;Samples;Min_cycle;Max_cycle;Signal;HPM_P1;HPM_P2
2022/01/28 00:00:14;;;;;;;;;;;10.70;63.20;;;;;;5017131;28;19913;-91
2022/01/28 00:02:56;;;;;;;;;;;10.70;63.20;;;;;;5020645;28;19917;-91
2022/01/28 00:05:22;;;;;;;;;;;10.70;62.90;;;;;;5018494;28;20001;-91
2022/01/28 00:07:49;;;;;;;;;;;10.60;62.70;;;;;;5018356;28;19918;-91
2022/01/28 00:10:14;;;;;;;;;;;10.50;62.60;;;;;;5022235;28;19910;-92
2022/01/28 00:13:31;;;;;;;;;;;10.50;62.70;;;;;;5020561;28;20377;-93
2022/01/28 00:15:33;;;;;;;;;;;10.40;62.60;;;;;;5011055;28;19913;-91
2022/01/28 00:37:07;;;;;;;;;;;9.70;62.90;;;;;;5002112;28;20329;-92
2022/01/28 00:39:33;;;;;;;;;;;9.70;63.00;;;;;;5020908;28;19910;-91
2022/01/28 00:41:58;;;;;;;;;;;9.70;63.20;;;;;;5020660;28;20270;-92
2022/01/28 00:44:24;;;;;;;;;;;9.80;63.40;;;;;;5021478;28;19909;-92
2022/01/28 00:46:49;;;;;;;;;;;9.80;63.70;;;;;;5009453;28;19918;-91
2022/01/28 00:49:15;;;;;;;;;;;9.90;63.90;;;;;;5034654;28;19921;-92
2022/01/28 00:51:40;;;;;;;;;;;9.90;63.90;;;;;;5010215;28;19924;-93
2022/01/28 00:54:06;;;;;;;;;;;10.00;63.90;;;;;;5015452;28;19913;-91
2022/01/28 00:56:32;;;;;;;;;;;10.00;63.80;;;;;;5008466;28;20013;-91
2022/01/28 00:58:57;;;;;;;;;;;10.00;63.70;;;;;;5031546;28;19918;-91
2022/01/28 01:01:23;;;;;;;;;;;10.00;63.80;;;;;;5005384;28;19909;-92
2022/01/28 01:03:48;;;;;;;;;;;10.00;63.90;;;;;;5003518;28;19921;-92
2022/01/28 01:06:14;;;;;;;;;;;10.10;63.90;;;;;;5018398;28;19909;-92
2022/01/28 01:08:41;;;;;;;;;;;10.10;64.00;;;;;;5002686;28;19920;-92
2022/01/28 01:11:07;;;;;;;;;;;10.20;64.00;;;;;;5006353;28;19918;-91
2022/01/28 01:13:39;;;;;;;;;;;10.20;64.00;;;;;;5019575;28;19917;-92
2022/01/28 01:16:05;;;;;;;;;;;10.30;63.90;;;;;;5014900;28;19944;-92
2022/01/28 01:18:39;;;;;;;;;;;10.20;63.90;;;;;;5001565;28;19968;-92
2022/01/28 01:21:10;;;;;;;;;;;10.20;63.90;;;;;;5003598;28;19920;-93
2022/01/28 01:23:38;;;;;;;;;;;10.30;63.80;;;;;;5019770;28;19967;-91
2022/01/28 01:28:33;;;;;;;;;;;10.30;63.80;;;;;;5014586;28;20374;-92
2022/01/28 01:31:01;;;;;;;;;;;10.30;63.80;;;;;;5011683;28;19916;-93
2022/01/28 01:33:29;;;;;;;;;;;10.30;63.80;;;;;;5003137;28;19922;-92
2022/01/28 01:35:55;;;;;;;;;;;10.30;63.80;;;;;;5000372;28;19961;-93
2022/01/28 01:38:25;;;;;;;;;;;10.30;63.80;;;;;;5015116;28;19918;-92
2022/01/28 01:40:59;;;;;;;;;;;10.30;63.40;;;;;;5018635;28;20388;-92
2022/01/28 01:53:51;;;;;;;;;;;10.10;63.10;;;;;;5000396;28;19964;-92
2022/01/28 01:56:19;;;;;;;;;;;10.10;63.00;;;;;;4999619;28;19917;-91
2022/01/28 01:58:45;;;;;;;;;;;10.00;63.00;;;;;;5005400;28;20285;-91
2022/01/28 02:01:11;;;;;;;;;;;10.10;62.80;;;;;;5018569;28;19909;-91
2022/01/28 02:03:37;;;;;;;;;;;10.00;62.60;;;;;;5019181;28;19918;-91
2022/01/28 02:06:03;;;;;;;;;;;9.90;62.40;;;;;;5016527;28;19916;-91
2022/01/28 02:08:31;;;;;;;;;;;9.90;62.10;;;;;;5029222;28;20372;-91
2022/01/28 02:10:58;;;;;;;;;;;9.80;62.30;;;;;;4998743;28;19913;-92
2022/01/28 02:13:24;;;;;;;;;;;9.80;62.70;;;;;;5007994;28;19924;-92
2022/01/28 02:15:49;;;;;;;;;;;9.80;62.80;;;;;;5017290;28;19963;-91
2022/01/28 02:18:15;;;;;;;;;;;9.80;62.80;;;;;;5016590;28;19913;-92
2022/01/28 02:20:43;;;;;;;;;;;9.70;62.80;;;;;;5016826;28;19944;-91
2022/01/28 02:23:09;;;;;;;;;;;9.70;62.60;;;;;;5014861;28;19909;-91
2022/01/28 02:25:34;;;;;;;;;;;9.70;62.50;;;;;;5015538;28;20063;-91
2022/01/28 02:28:02;;;;;;;;;;;9.70;62.50;;;;;;5005542;28;20414;-92
2022/01/28 02:30:27;;;;;;;;;;;9.60;62.20;;;;;;4998426;28;19925;-92
2022/01/28 02:33:00;;;;;;;;;;;9.60;62.40;;;;;;5009750;28;19914;-91
2022/01/28 02:35:26;;;;;;;;;;;9.60;62.60;;;;;;5010721;28;19922;-92
2022/01/28 02:37:51;;;;;;;;;;;9.60;62.80;;;;;;5011630;28;19917;-92
2022/01/28 02:40:17;;;;;;;;;;;9.60;63.00;;;;;;5002098;28;19924;-92
2022/01/28 02:42:58;;;;;;;;;;;9.70;63.00;;;;;;5000153;28;19920;-92
2022/01/28 02:45:32;;;;;;;;;;;9.70;62.90;;;;;;5018521;28;20377;-91
2022/01/28 02:48:02;;;;;;;;;;;9.60;62.70;;;;;;5010143;28;20277;-91
2022/01/28 02:50:31;;;;;;;;;;;9.60;62.70;;;;;;5003348;28;20025;-91
2022/01/28 02:53:06;;;;;;;;;;;9.50;62.50;;;;;;5008304;28;19913;-91
2022/01/28 02:55:37;;;;;;;;;;;9.50;62.50;;;;;;5002594;28;20016;-91
2022/01/28 02:58:18;;;;;;;;;;;9.40;62.60;;;;;;4997406;28;19921;-92
2022/01/28 03:00:46;;;;;;;;;;;9.40;62.40;;;;;;5023094;28;19917;-91
2022/01/28 03:03:12;;;;;;;;;;;9.40;62.70;;;;;;5015949;28;19917;-92
2022/01/28 03:05:37;;;;;;;;;;;9.40;63.00;;;;;;5015695;28;19936;-92
2022/01/28 03:08:04;;;;;;;;;;;9.50;63.10;;;;;;4999516;28;19913;-92
2022/01/28 03:10:40;;;;;;;;;;;9.50;63.30;;;;;;5017552;28;19917;-91
2022/01/28 03:15:33;;;;;;;;;;;9.70;63.60;;;;;;5009259;28;19917;-92
2022/01/28 03:18:15;;;;;;;;;;;9.80;63.60;;;;;;5003465;28;19917;-92
2022/01/28 03:20:54;;;;;;;;;;;9.80;63.60;;;;;;5016701;28;19947;-92
2022/01/28 03:23:20;;;;;;;;;;;9.90;63.70;;;;;;5008563;28;19910;-91
2022/01/28 03:25:47;;;;;;;;;;;10.00;63.60;;;;;;4996806;28;19929;-92
2022/01/28 03:28:14;;;;;;;;;;;10.00;63.50;;;;;;4996945;28;19914;-92
2022/01/28 03:30:40;;;;;;;;;;;10.10;63.50;;;;;;5005897;28;20009;-92
2022/01/28 03:33:05;;;;;;;;;;;10.10;63.40;;;;;;5000687;28;20381;-92
2022/01/28 03:35:32;;;;;;;;;;;10.20;63.40;;;;;;5016864;28;20297;-90
2022/01/28 03:38:03;;;;;;;;;;;10.20;63.30;;;;;;5009286;28;19960;-90
2022/01/28 03:40:36;;;;;;;;;;;10.10;63.20;;;;;;4996963;28;19984;-93
2022/01/28 03:43:02;;;;;;;;;;;10.20;63.20;;;;;;5012366;28;19972;-91
2022/01/28 03:45:28;;;;;;;;;;;10.20;63.10;;;;;;5018394;28;19914;-91
2022/01/28 03:47:53;;;;;;;;;;;10.20;63.20;;;;;;5008585;28;19918;-91
2022/01/28 03:50:18;;;;;;;;;;;10.20;63.00;;;;;;5002621;28;19917;-92
2022/01/28 03:52:44;;;;;;;;;;;10.20;62.90;;;;;;5015037;28;19939;-92
2022/01/28 03:55:10;;;;;;;;;;;10.10;62.80;;;;;;5015514;28;19922;-91
2022/01/28 03:57:35;;;;;;;;;;;10.10;62.80;;;;;;5000324;28;19914;-91
2022/01/28 04:00:01;;;;;;;;;;;10.10;62.80;;;;;;4999762;28;20265;-91
2022/01/28 04:02:30;;;;;;;;;;;10.10;62.80;;;;;;5010074;28;20004;-91
2022/01/28 04:12:50;;;;;;;;;;;10.10;63.00;;;;;;5003775;28;19916;-92
2022/01/28 04:15:24;;;;;;;;;;;10.10;63.10;;;;;;5013465;28;20004;-91
2022/01/28 04:17:50;;;;;;;;;;;10.20;63.10;;;;;;5001047;28;19920;-91
2022/01/28 04:20:15;;;;;;;;;;;10.20;63.00;;;;;;4996147;28;19985;-91
2022/01/28 04:22:41;;;;;;;;;;;10.20;63.00;;;;;;5000810;28;19920;-91
2022/01/28 04:25:07;;;;;;;;;;;10.20;63.00;;;;;;5005766;28;19928;-91
2022/01/28 04:27:32;;;;;;;;;;;10.20;62.90;;;;;;5015520;28;20379;-91
2022/01/28 04:29:58;;;;;;;;;;;10.20;62.80;;;;;;5006273;28;19945;-90
2022/01/28 04:32:26;;;;;;;;;;;10.20;62.90;;;;;;5010277;28;19913;-90
2022/01/28 04:34:53;;;;;;;;;;;10.20;62.90;;;;;;5012370;28;20012;-91
2022/01/28 04:37:45;;;;;;;;;;;10.20;62.80;;;;;;5021949;28;19921;-91
2022/01/28 04:45:22;;;;;;;;;;;10.20;62.80;;;;;;5016483;28;19940;-91
2022/01/28 05:01:00;;;;;;;;;;;10.20;63.00;;;;;;5011852;28;20392;-91
2022/01/28 05:09:11;;;;;;;;;;;10.30;63.10;;;;;;5003557;28;19921;-91
2022/01/28 05:27:27;;;;;;;;;;;10.20;63.10;;;;;;5014001;28;20381;-92
2022/01/28 05:29:53;;;;;;;;;;;10.20;63.20;;;;;;4998154;28;20431;-92
2022/01/28 05:32:21;;;;;;;;;;;10.20;63.10;;;;;;5029663;28;19917;-92
2022/01/28 05:34:47;;;;;;;;;;;10.30;63.10;;;;;;4996804;28;19961;-92
2022/01/28 05:37:12;;;;;;;;;;;10.30;63.00;;;;;;5013019;28;19976;-92
2022/01/28 05:39:38;;;;;;;;;;;10.20;63.00;;;;;;5008200;28;19914;-92
2022/01/28 05:42:04;;;;;;;;;;;10.20;63.00;;;;;;4999046;28;19993;-91
2022/01/28 05:44:29;;;;;;;;;;;10.20;62.90;;;;;;4997193;28;19937;-91
2022/01/28 05:46:57;;;;;;;;;;;10.20;62.80;;;;;;5003565;28;19957;-91
2022/01/28 05:49:22;;;;;;;;;;;10.20;62.70;;;;;;5010227;28;20306;-90
2022/01/28 05:51:48;;;;;;;;;;;10.20;62.70;;;;;;5007825;28;19968;-91
2022/01/28 05:54:14;;;;;;;;;;;10.20;62.70;;;;;;5016615;28;19948;-92
2022/01/28 05:56:39;;;;;;;;;;;10.20;62.80;;;;;;5011942;28;19944;-90
2022/01/28 05:59:05;;;;;;;;;;;10.20;62.70;;;;;;4998915;28;19980;-91
2022/01/28 06:01:30;;;;;;;;;;;10.20;62.70;;;;;;5016584;28;19941;-90
2022/01/28 06:03:56;;;;;;;;;;;10.20;62.60;;;;;;5016412;28;20056;-91
2022/01/28 06:06:23;;;;;;;;;;;10.20;62.70;;;;;;4997188;28;20016;-90
2022/01/28 06:08:54;;;;;;;;;;;10.20;62.70;;;;;;5014666;28;19921;-91
2022/01/28 06:11:20;;;;;;;;;;;10.20;62.60;;;;;;5017024;28;19925;-90
2022/01/28 06:13:45;;;;;;;;;;;10.20;62.40;;;;;;5016389;28;19913;-90
2022/01/28 06:16:12;;;;;;;;;;;10.00;62.30;;;;;;5011190;28;19998;-91
2022/01/28 06:18:38;;;;;;;;;;;10.00;62.00;;;;;;4996857;28;20267;-90
2022/01/28 06:21:05;;;;;;;;;;;9.90;61.90;;;;;;5012425;28;19917;-91
2022/01/28 06:23:31;;;;;;;;;;;9.80;61.60;;;;;;5006188;28;19914;-91
2022/01/28 06:25:56;;;;;;;;;;;9.70;61.50;;;;;;4997661;28;19922;-91
2022/01/28 06:28:21;;;;;;;;;;;9.70;61.40;;;;;;4996535;28;19918;-91
2022/01/28 06:30:47;;;;;;;;;;;9.60;61.10;;;;;;4996863;28;19910;-91
2022/01/28 06:33:13;;;;;;;;;;;9.50;61.00;;;;;;4999180;28;19910;-90
2022/01/28 06:35:39;;;;;;;;;;;9.40;61.10;;;;;;5016426;28;19914;-90
2022/01/28 06:38:05;;;;;;;;;;;9.40;61.50;;;;;;5016540;28;19913;-91
2022/01/28 06:40:30;;;;;;;;;;;9.40;61.90;;;;;;5001906;28;20444;-91
2022/01/28 06:42:56;;;;;;;;;;;9.40;62.10;;;;;;4996523;28;19913;-90
2022/01/28 06:45:23;;;;;;;;;;;9.30;62.00;;;;;;5001750;28;19918;-90
2022/01/28 06:47:48;;;;;;;;;;;9.30;61.90;;;;;;4996714;28;19917;-91
2022/01/28 06:50:14;;;;;;;;;;;9.30;61.70;;;;;;5017775;28;19922;-91
2022/01/28 06:52:41;;;;;;;;;;;9.30;61.90;;;;;;5034029;28;19913;-91
2022/01/28 06:55:06;;;;;;;;;;;9.30;62.20;;;;;;5011518;28;19921;-91
2022/01/28 06:57:32;;;;;;;;;;;9.40;62.50;;;;;;5012539;28;19917;-92
2022/01/28 06:59:58;;;;;;;;;;;9.40;62.60;;;;;;5012428;28;19921;-91
2022/01/28 07:02:24;;;;;;;;;;;9.50;62.80;;;;;;5012372;28;20375;-92
2022/01/28 07:04:49;;;;;;;;;;;9.60;62.90;;;;;;5011378;28;19918;-92
2022/01/28 07:07:15;;;;;;;;;;;9.70;63.00;;;;;;5012205;28;19913;-91
2022/01/28 07:09:40;;;;;;;;;;;9.70;63.10;;;;;;4995264;28;19926;-91
2022/01/28 07:12:06;;;;;;;;;;;9.70;63.20;;;;;;5013741;28;20344;-92
2022/01/28 07:14:33;;;;;;;;;;;9.90;63.20;;;;;;5013464;28;19921;-91
2022/01/28 07:16:58;;;;;;;;;;;9.90;63.10;;;;;;5014456;28;19913;-92
2022/01/28 07:19:24;;;;;;;;;;;10.00;63.10;;;;;;5015822;28;20012;-92
2022/01/28 07:21:50;;;;;;;;;;;10.00;63.10;;;;;;4997512;28;19967;-92
2022/01/28 07:24:16;;;;;;;;;;;10.00;62.90;;;;;;5015834;28;19927;-92
2022/01/28 07:26:41;;;;;;;;;;;10.10;63.00;;;;;;5018611;28;20004;-91
2022/01/28 07:29:09;;;;;;;;;;;10.20;62.80;;;;;;5014355;28;19925;-91
2022/01/28 07:31:36;;;;;;;;;;;10.20;62.80;;;;;;5011953;28;19913;-91
2022/01/28 07:34:01;;;;;;;;;;;10.20;62.90;;;;;;5013621;28;20006;-91
2022/01/28 07:36:27;;;;;;;;;;;10.30;62.90;;;;;;5011304;28;20004;-90
2022/01/28 07:38:52;;;;;;;;;;;10.30;62.80;;;;;;5008608;28;19922;-91
2022/01/28 07:41:17;;;;;;;;;;;10.40;62.80;;;;;;5013213;28;19961;-91
2022/01/28 07:43:43;;;;;;;;;;;10.50;62.70;;;;;;5011504;28;19922;-91
2022/01/28 07:46:09;;;;;;;;;;;10.50;62.70;;;;;;5013476;28;19920;-91
2022/01/28 07:48:35;;;;;;;;;;;10.50;62.60;;;;;;5008960;28;20277;-91
2022/01/28 07:51:03;;;;;;;;;;;10.50;62.60;;;;;;5010612;28;19914;-91
2022/01/28 07:53:28;;;;;;;;;;;10.50;62.60;;;;;;5011062;28;20398;-92
2022/01/28 07:55:54;;;;;;;;;;;10.60;62.60;;;;;;5011389;28;19913;-91
2022/01/28 07:58:19;;;;;;;;;;;10.60;62.70;;;;;;5011474;28;19969;-91
2022/01/28 08:00:45;;;;;;;;;;;10.70;62.70;;;;;;5009436;28;19919;-91
2022/01/28 08:03:10;;;;;;;;;;;10.70;62.70;;;;;;5010902;28;19957;-91
2022/01/28 08:05:36;;;;;;;;;;;10.70;62.70;;;;;;5010463;28;20036;-91
2022/01/28 08:08:07;;;;;;;;;;;10.70;62.60;;;;;;5012964;28;19909;-91
2022/01/28 08:10:33;;;;;;;;;;;10.70;62.60;;;;;;5013539;28;20317;-91
2022/01/28 08:13:02;;;;;;;;;;;10.70;62.50;;;;;;5013813;28;19910;-91
2022/01/28 08:15:27;;;;;;;;;;;10.70;62.40;;;;;;5014185;28;19922;-91
2022/01/28 08:17:53;;;;;;;;;;;10.60;62.50;;;;;;5013770;28;19924;-91
2022/01/28 08:20:18;;;;;;;;;;;10.60;62.50;;;;;;5015901;28;19967;-90
2022/01/28 08:22:48;;;;;;;;;;;10.60;62.60;;;;;;5011869;28;19925;-91
2022/01/28 08:25:14;;;;;;;;;;;10.60;62.60;;;;;;5009962;28;20012;-92
2022/01/28 08:27:41;;;;;;;;;;;10.60;62.80;;;;;;5003885;28;19925;-91
2022/01/28 08:30:07;;;;;;;;;;;10.70;62.90;;;;;;5014769;28;20437;-91
2022/01/28 08:32:32;;;;;;;;;;;10.70;62.70;;;;;;5012775;28;19914;-91
2022/01/28 08:34:58;;;;;;;;;;;10.80;63.00;;;;;;5015429;28;19955;-91
2022/01/28 08:37:23;;;;;;;;;;;10.90;63.10;;;;;;5016188;28;19917;-91
2022/01/28 08:39:49;;;;;;;;;;;11.00;63.10;;;;;;5014294;28;19949;-91
2022/01/28 08:42:16;;;;;;;;;;;11.10;63.00;;;;;;5013579;28;20349;-91
2022/01/28 08:44:42;;;;;;;;;;;11.20;63.00;;;;;;5002589;28;19922;-91
2022/01/28 08:47:07;;;;;;;;;;;11.20;62.90;;;;;;4995835;28;19914;-92
2022/01/28 08:49:33;;;;;;;;;;;11.30;62.80;;;;;;4998196;28;19917;-92
2022/01/28 08:51:59;;;;;;;;;;;11.30;62.70;;;;;;5013912;28;19913;-92
2022/01/28 08:54:24;;;;;;;;;;;11.30;62.70;;;;;;5014277;28;19921;-91
2022/01/28 08:56:50;;;;;;;;;;;11.30;62.70;;;;;;5014516;28;19984;-92
2022/01/28 08:59:15;;;;;;;;;;;11.30;62.60;;;;;;5005029;28;19921;-91
2022/01/28 09:01:41;;;;;;;;;;;11.30;62.70;;;;;;5014669;28;19910;-92
2022/01/28 09:04:06;;;;;;;;;;;11.30;62.90;;;;;;5013905;28;19960;-92
2022/01/28 09:06:32;;;;;;;;;;;11.40;62.90;;;;;;5010454;28;19980;-91
2022/01/28 09:09:00;;;;;;;;;;;11.50;63.10;;;;;;5015436;28;19921;-91
2022/01/28 09:13:52;;;;;;;;;;;11.60;62.90;;;;;;5010975;28;20383;-92
2022/01/28 09:16:18;;;;;;;;;;;11.70;62.70;;;;;;5012843;28;20016;-92
2022/01/28 09:18:44;;;;;;;;;;;11.80;63.00;;;;;;4999857;28;19956;-91
2022/01/28 09:21:09;;;;;;;;;;;11.80;62.90;;;;;;5016181;28;19910;-91
2022/01/28 09:23:35;;;;;;;;;;;11.90;62.90;;;;;;5013882;28;19928;-91
2022/01/28 09:26:01;;;;;;;;;;;12.00;62.90;;;;;;5011910;28;19928;-91
2022/01/28 09:28:26;;;;;;;;;;;12.00;62.90;;;;;;4998270;28;19921;-91
2022/01/28 09:30:57;;;;;;;;;;;12.10;63.00;;;;;;5014686;28;19924;-90
2022/01/28 09:33:23;;;;;;;;;;;12.20;63.00;;;;;;5010808;28;19945;-92
2022/01/28 09:35:49;;;;;;;;;;;12.30;62.90;;;;;;4995313;28;19981;-91
2022/01/28 09:38:15;;;;;;;;;;;12.40;63.10;;;;;;5006728;28;19985;-92
2022/01/28 09:40:41;;;;;;;;;;;12.50;63.20;;;;;;4999192;28;19920;-91
2022/01/28 09:43:09;;;;;;;;;;;12.60;63.20;;;;;;5005190;28;19936;-92
2022/01/28 09:45:35;;;;;;;;;;;12.70;63.20;;;;;;5008576;28;19953;-92
2022/01/28 09:48:01;;;;;;;;;;;12.80;63.00;;;;;;4995452;28;20412;-92
2022/01/28 09:50:28;;;;;;;;;;;12.90;63.20;;;;;;5002668;28;19921;-90
2022/01/28 09:52:55;;;;;;;;;;;13.00;63.10;;;;;;5014336;28;19913;-92
2022/01/28 09:55:21;;;;;;;;;;;13.10;62.90;;;;;;5002681;28;19918;-91
2022/01/28 09:57:54;;;;;;;;;;;13.20;63.00;;;;;;4995160;28;19977;-91
2022/01/28 10:00:22;;;;;;;;;;;13.10;62.90;;;;;;5002365;28;19964;-91
2022/01/28 10:02:56;;;;;;;;;;;13.10;62.70;;;;;;5001770;28;20055;-92
2022/01/28 10:05:26;;;;;;;;;;;13.10;62.30;;;;;;5015177;28;19921;-92
2022/01/28 10:08:09;;;;;;;;;;;13.10;62.40;;;;;;5014596;28;19952;-92
2022/01/28 10:10:40;;;;;;;;;;;13.20;63.10;;;;;;4996938;28;20373;-92
2022/01/28 10:13:10;;;;;;;;;;;13.30;63.40;;;;;;4996698;28;19910;-92
2022/01/28 10:15:51;;;;;;;;;;;13.50;63.20;;;;;;5010217;28;20408;-92
2022/01/28 10:18:17;;;;;;;;;;;13.60;63.70;;;;;;5014250;28;19914;-92
2022/01/28 10:20:43;;;;;;;;;;;13.80;64.20;;;;;;5016143;28;19985;-92
2022/01/28 10:23:11;;;;;;;;;;;14.10;64.50;;;;;;5015349;28;19997;-91
2022/01/28 10:25:38;;;;;;;;;;;14.30;64.70;;;;;;4999989;28;19932;-92
2022/01/28 10:28:08;;;;;;;;;;;14.60;64.50;;;;;;5018252;28;19996;-92
2022/01/28 10:30:38;;;;;;;;;;;14.80;64.20;;;;;;5015272;28;19917;-92
2022/01/28 10:33:18;;;;;;;;;;;15.00;63.80;;;;;;5014815;28;19913;-91
2022/01/28 10:35:52;;;;;;;;;;;15.10;63.50;;;;;;5002099;28;19999;-91
2022/01/28 10:38:31;;;;;;;;;;;15.20;63.20;;;;;;4997712;28;20323;-92
2022/01/28 10:41:15;;;;;;;;;;;15.10;62.70;;;;;;4996381;28;19917;-92
2022/01/28 10:43:44;;;;;;;;;;;15.10;62.70;;;;;;5006292;28;19922;-93
2022/01/28 10:46:10;;;;;;;;;;;15.10;62.80;;;;;;4998340;28;19937;-92
2022/01/28 10:48:49;;;;;;;;;;;15.10;62.70;;;;;;4994581;28;19933;-91
2022/01/28 10:51:17;;;;;;;;;;;15.10;62.50;;;;;;5007341;28;19924;-91
2022/01/28 10:54:02;;;;;;;;;;;15.10;62.30;;;;;;5015064;28;19914;-92
2022/01/28 10:56:37;;;;;;;;;;;;;;;;;;;;;
2022/01/28 10:59:05;;;;;;;;;;;15.10;62.30;;;;;;5016660;28;19920;-91
2022/01/28 11:01:35;;;;;;;;;;;15.20;62.40;;;;;;5012647;28;21584;-91
2022/01/28 11:04:01;;;;;;;;;;;15.30;62.30;;;;;;5013715;28;19989;-91
2022/01/28 11:06:26;;;;;;;;;;;15.40;62.20;;;;;;5013842;28;19922;-93
2022/01/28 11:08:52;;;;;;;;;;;15.50;62.00;;;;;;5010373;28;20246;-92
2022/01/28 11:11:18;;;;;;;;;;;15.50;61.70;;;;;;5003634;28;19918;-91
2022/01/28 11:13:44;;;;;;;;;;;15.60;62.00;;;;;;5015007;28;19916;-89
2022/01/28 11:16:10;;;;;;;;;;;15.70;61.30;;;;;;5013681;28;19921;-89
2022/01/28 11:18:36;;;;;;;;;;;15.70;61.40;;;;;;5012587;28;20017;-90
2022/01/28 11:21:04;;;;;;;;;;;15.70;60.50;;;;;;5013193;28;19924;-89
2022/01/28 11:23:48;;;;;;;;;;;15.60;59.30;;;;;;5002443;28;19959;-88
2022/01/28 11:26:19;;;;;;;;;;;15.50;59.10;;;;;;4994163;28;19929;-89
2022/01/28 11:28:45;;;;;;;;;;;15.50;60.80;;;;;;5011476;28;19957;-88
2022/01/28 11:31:11;;;;;;;;;;;15.70;60.20;;;;;;5012388;28;20350;-88
2022/01/28 11:33:48;;;;;;;;;;;15.70;59.20;;;;;;5012011;28;19913;-89
2022/01/28 11:36:14;;;;;;;;;;;15.60;58.50;;;;;;5012070;28;19918;-88
2022/01/28 11:38:42;;;;;;;;;;;15.60;58.70;;;;;;5012403;28;20040;-89
2022/01/28 11:41:09;;;;;;;;;;;15.50;59.10;;;;;;5009807;28;20226;-89
2022/01/28 11:43:43;;;;;;;;;;;15.50;59.40;;;;;;5013813;28;20336;-88
2022/01/28 11:46:09;;;;;;;;;;;15.50;59.30;;;;;;5016159;28;19925;-89
2022/01/28 11:48:54;;;;;;;;;;;15.50;59.20;;;;;;5017609;28;19916;-89
2022/01/28 11:51:20;;;;;;;;;;;15.60;58.70;;;;;;5016631;28;19921;-89
2022/01/28 11:53:53;;;;;;;;;;;15.60;59.80;;;;;;5005652;28;20405;-90
2022/01/28 11:56:19;;;;;;;;;;;15.60;59.90;;;;;;4999057;28;19952;-89
2022/01/28 11:58:56;;;;;;;;;;;15.70;59.30;;;;;;5001462;28;20328;-88
2022/01/28 12:01:25;;;;;;;;;;;15.80;58.30;;;;;;4997619;28;19922;-87
2022/01/28 12:04:11;;;;;;;;;;;16.00;59.20;;;;;;4995613;28;19920;-87
2022/01/28 12:06:38;;;;;;;;;;;16.20;58.40;;;;;;5001019;28;19917;-87
2022/01/28 12:09:03;;;;;;;;;;;16.20;56.70;;;;;;4999867;28;20257;-87
2022/01/28 12:11:41;;;;;;;;;;;16.10;56.40;;;;;;5009756;28;19922;-87
2022/01/28 12:14:11;;;;;;;;;;;15.90;55.10;;;;;;5014904;28;20000;-88
2022/01/28 12:16:41;;;;;;;;;;;15.70;55.50;;;;;;5016951;28;20301;-87
2022/01/28 12:19:16;;;;;;;;;;;15.60;56.60;;;;;;4997346;28;19921;-88
2022/01/28 12:22:02;;;;;;;;;;;15.60;57.60;;;;;;5017073;28;20367;-88
2022/01/28 12:24:27;;;;;;;;;;;15.70;57.00;;;;;;5015922;28;19973;-87
2022/01/28 12:26:55;;;;;;;;;;;15.70;56.60;;;;;;5017892;28;19961;-87
2022/01/28 12:29:28;;;;;;;;;;;15.80;57.00;;;;;;5006250;28;19917;-87
2022/01/28 12:31:56;;;;;;;;;;;15.80;57.60;;;;;;5010304;28;20320;-87
2022/01/28 12:34:22;;;;;;;;;;;15.80;57.50;;;;;;5016515;28;19916;-87
2022/01/28 12:36:48;;;;;;;;;;;15.80;57.10;;;;;;5003312;28;20008;-87
2022/01/28 12:39:20;;;;;;;;;;;15.80;57.20;;;;;;4998967;28;20005;-88
2022/01/28 12:41:53;;;;;;;;;;;15.70;56.00;;;;;;5010638;28;19918;-87
2022/01/28 12:44:19;;;;;;;;;;;15.60;56.20;;;;;;5002956;28;19914;-89
2022/01/28 12:46:46;;;;;;;;;;;15.50;56.40;;;;;;4992905;28;19928;-87
2022/01/28 12:49:11;;;;;;;;;;;15.40;56.80;;;;;;4993215;28;19913;-88
2022/01/28 12:51:38;;;;;;;;;;;15.30;55.90;;;;;;5008463;28;20324;-88
2022/01/28 12:54:03;;;;;;;;;;;15.30;54.30;;;;;;5008411;28;19918;-87
2022/01/28 12:56:30;;;;;;;;;;;15.30;55.20;;;;;;4993328;28;19922;-88
2022/01/28 12:58:55;;;;;;;;;;;15.40;55.30;;;;;;4992895;28;19917;-88
2022/01/28 13:01:21;;;;;;;;;;;15.40;54.50;;;;;;4992329;28;19945;-88
2022/01/28 13:04:01;;;;;;;;;;;15.50;56.60;;;;;;5003781;28;19928;-88
2022/01/28 13:08:59;;;;;;;;;;;15.50;56.20;;;;;;5012773;28;19914;-88
2022/01/28 13:11:26;;;;;;;;;;;15.50;55.30;;;;;;5012757;28;20059;-88
2022/01/28 13:13:53;;;;;;;;;;;15.50;54.60;;;;;;5012070;28;19909;-88
2022/01/28 13:16:28;;;;;;;;;;;15.50;55.30;;;;;;5012687;28;20021;-88
2022/01/28 13:18:55;;;;;;;;;;;15.70;55.70;;;;;;5011069;28;19983;-88
2022/01/28 13:21:20;;;;;;;;;;;15.70;55.10;;;;;;5010664;28;19921;-88
2022/01/28 13:23:46;;;;;;;;;;;15.80;55.90;;;;;;4997219;28;19945;-88
2022/01/28 13:26:11;;;;;;;;;;;15.80;54.60;;;;;;4990763;28;19999;-88
2022/01/28 13:28:37;;;;;;;;;;;15.80;55.20;;;;;;4991719;28;20016;-88
2022/01/28 13:31:02;;;;;;;;;;;15.80;55.10;;;;;;4994991;28;19922;-88
2022/01/28 13:33:31;;;;;;;;;;;15.80;54.60;;;;;;5012245;28;20373;-88
2022/01/28 13:35:58;;;;;;;;;;;15.80;53.80;;;;;;5011509;28;19929;-88
2022/01/28 13:38:23;;;;;;;;;;;15.80;53.50;;;;;;5012309;28;20462;-88
2022/01/28 13:40:49;;;;;;;;;;;15.80;55.10;;;;;;5011405;28;19956;-88
2022/01/28 13:43:22;;;;;;;;;;;15.80;54.90;;;;;;5010543;28;20281;-88
2022/01/28 13:45:51;;;;;;;;;;;15.80;55.10;;;;;;5000564;28;19922;-89
2022/01/28 13:48:22;;;;;;;;;;;15.90;55.10;;;;;;4992285;28;20105;-88
2022/01/28 13:50:49;;;;;;;;;;;15.80;54.80;;;;;;4999528;28;19933;-88
2022/01/28 13:54:09;;;;;;;;;;;15.60;50.40;;;;;;5010380;28;19914;-88
2022/01/28 13:56:08;;;;;;;;;;;15.50;52.00;;;;;;5011969;28;19960;-88
2022/01/28 13:58:44;;;;;;;;;;;15.40;53.10;;;;;;5010965;28;20052;-88
2022/01/28 14:01:12;;;;;;;;;;;15.30;54.10;;;;;;4995070;28;19921;-88
2022/01/28 14:03:48;;;;;;;;;;;15.30;54.20;;;;;;4993682;28;20330;-88
2022/01/28 14:06:18;;;;;;;;;;;15.30;54.50;;;;;;4992525;28;19953;-87
2022/01/28 14:08:52;;;;;;;;;;;15.30;53.50;;;;;;4992932;28;19918;-88
2022/01/28 14:11:31;;;;;;;;;;;15.30;53.90;;;;;;4991220;28;19926;-88
2022/01/28 14:14:15;;;;;;;;;;;15.30;54.90;;;;;;4992553;28;19918;-88
2022/01/28 14:16:45;;;;;;;;;;;15.20;52.70;;;;;;4990944;28;19928;-88
2022/01/28 14:19:10;;;;;;;;;;;15.20;53.20;;;;;;4992181;28;19968;-89
2022/01/28 14:21:37;;;;;;;;;;;15.20;54.20;;;;;;4991799;28;19922;-88
2022/01/28 14:24:03;;;;;;;;;;;15.20;54.40;;;;;;4991970;28;19937;-89
2022/01/28 14:26:28;;;;;;;;;;;15.10;53.30;;;;;;4990534;28;19926;-88
2022/01/28 14:31:22;;;;;;;;;;;15.00;53.30;;;;;;4991975;28;19921;-88
2022/01/28 14:33:49;;;;;;;;;;;14.90;53.00;;;;;;4991208;28;20293;-88
2022/01/28 14:36:15;;;;;;;;;;;14.90;52.70;;;;;;4991069;28;19918;-92
2022/01/28 14:38:42;;;;;;;;;;;14.80;53.60;;;;;;5006081;28;19928;-88
2022/01/28 14:41:09;;;;;;;;;;;14.80;54.00;;;;;;5010694;28;19928;-88
2022/01/28 14:43:35;;;;;;;;;;;14.80;55.80;;;;;;5010846;28;20190;-88
2022/01/28 14:46:00;;;;;;;;;;;14.80;55.90;;;;;;5012623;28;20120;-87
2022/01/28 14:48:28;;;;;;;;;;;14.80;56.00;;;;;;5011043;28;19917;-87
2022/01/28 14:50:53;;;;;;;;;;;14.70;55.90;;;;;;5009771;28;19980;-87
2022/01/28 14:53:19;;;;;;;;;;;14.70;56.10;;;;;;4997934;28;19929;-89
2022/01/28 14:55:44;;;;;;;;;;;14.80;56.60;;;;;;5011827;28;19967;-86
2022/01/28 14:58:10;;;;;;;;;;;14.80;56.60;;;;;;5012035;28;20004;-88
2022/01/28 15:00:35;;;;;;;;;;;14.70;55.70;;;;;;5012568;28;20000;-88
2022/01/28 15:03:01;;;;;;;;;;;14.70;55.80;;;;;;5015033;28;20024;-87
2022/01/28 15:05:28;;;;;;;;;;;14.60;56.00;;;;;;5011638;28;20330;-88
2022/01/28 15:07:54;;;;;;;;;;;14.60;56.00;;;;;;5013474;28;19905;-87
2022/01/28 15:10:26;;;;;;;;;;;14.50;56.00;;;;;;5011071;28;19910;-87
2022/01/28 15:12:52;;;;;;;;;;;14.50;56.50;;;;;;5022207;28;19916;-88
2022/01/28 15:15:18;;;;;;;;;;;14.50;56.80;;;;;;5013950;28;19909;-88
2022/01/28 15:17:43;;;;;;;;;;;14.50;57.30;;;;;;5013320;28;19960;-89
2022/01/28 15:20:09;;;;;;;;;;;14.40;56.40;;;;;;5012654;28;19909;-89
2022/01/28 15:22:34;;;;;;;;;;;14.30;56.00;;;;;;5015030;28;19916;-89
2022/01/28 15:25:04;;;;;;;;;;;14.20;56.20;;;;;;5003584;28;19914;-89
2022/01/28 15:27:31;;;;;;;;;;;14.20;56.50;;;;;;4990658;28;20025;-89
2022/01/28 15:35:53;;;;;;;;;;;14.00;56.60;;;;;;4991846;28;19971;-88
2022/01/28 15:38:17;;;;;;;;;;;13.80;56.00;;;;;;5010765;28;19968;-89
2022/01/28 15:40:44;;;;;;;;;;;13.80;56.40;;;;;;5009547;28;19925;-89
2022/01/28 15:43:09;;;;;;;;;;;13.70;56.80;;;;;;5010830;28;20000;-89
2022/01/28 15:45:35;;;;;;;;;;;13.70;57.20;;;;;;4998505;28;20076;-89
2022/01/28 15:48:02;;;;;;;;;;;13.60;57.30;;;;;;5010086;28;19959;-89
2022/01/28 15:50:28;;;;;;;;;;;13.60;56.80;;;;;;5009485;28;19960;-89
2022/01/28 15:52:54;;;;;;;;;;;13.50;57.00;;;;;;5011156;28;19913;-89
2022/01/28 15:55:20;;;;;;;;;;;13.40;57.00;;;;;;5010309;28;20389;-89
2022/01/28 15:57:46;;;;;;;;;;;13.30;56.70;;;;;;5011745;28;20369;-89
2022/01/28 16:00:11;;;;;;;;;;;13.20;56.30;;;;;;5007920;28;20475;-89